Terminal Aerodrome Forecast
Issued by NWS

Home | Current Version | Previous Version | Text Only | Print | Product List | Glossary On
Versions: 1 2 3 4 5 6 7 8 9 10 11 12 13 14 15
000
FTAK31 PAFA 301120
TAFAMC
TAF
PAMC 301120Z 3012/3112 01007KT P6SM FEW200
     FM301900 14008G14KT P6SM FEW060 SCT120 PROB30 3023/3104 6SM
      -SHRA BKN060=

USA.gov is the U.S. government's official web portal to all federal, state and local government web resources and services.